Sheridan, WY

11:41 PM MST on January 31, 2015 (GMT -0700)
North Airport Area | Change Station
CLOSE
Current Station
Personal Weather Station
Location: Sheridan, WY
Elevation: 3917 ft
Nearby Weather Stations

Elev 3917 ft 44.78 °N, 106.97 °W | Updated 12 minutes ago

Overcast
Overcast
14.2 °F
Feels Like 3 °F
N
7.8
Wind Variable Wind from North

Today
High -- | Low -- °F
--% Chance of Precip.
Yesterday
High -- | Low -- °F
Precip. -- in
7:28 AM 5:14 PM
Waxing Gibbous, 93% visible
Pressure 30.35 in
Visibility 10.0 miles
Clouds Overcast 6000 ft
Windchill 3 °F
Dew Point 8 °F
Humidity 76%
Rainfall 0.00 in
Snow Depth Not available.
UV 0 out of 12
Pollen .10 out of 12
Air Quality Not available.
Flu Activity Not available.
METAR KSHR 010553Z AUTO 33017KT 10SM OVC060 M09/M13 A3023 RMK AO2 SLP276 60000 T10941133 11033 21094 51019

More Conditions Fewer Conditions

Pressure 30.35 in
Visibility 10.0 miles
Clouds Overcast 6000 ft
Windchill 3 °F
Dew Point 8 °F
Humidity 76%
Rainfall 0.00 in
Snow Depth Not available.
UV 0 out of 12
Pollen .10 out of 12
Air Quality Not available.
Flu Activity Not available.
METAR KSHR 010553Z AUTO 33017KT 10SM OVC060 M09/M13 A3023 RMK AO2 SLP276 60000 T10941133 11033 21094 51019

More Conditions Fewer Conditions

10-Day Weather Forecast

Almanac

Astronomy

Jan. 31, 2015 Rise Set
Actual Time
Civil Twilight
Nautical Twilight
Astronomical Twilight
Moon
Length of Visible Light
Length of Day
Tomorrow will be .
, % of the Moon is Illuminated

Today's Extremes

State Highs State Lows

Community

WunderPhotos

Upload Photos

1,792,324 photos uploaded!

WunderBlogs® & News

Nearby

Air Quality

  Air Quality AQ Index Pollutant
Not available.

Snow Depth

Station Depth Elevation

Earthquake Activity

City Distance Mag. Time & Date
Minimum magnitude displayed is 2.5.

Coastal Water Temperatures

Place Temperature

Nearby Weather Stations